Time;durP1;ratioP1;P1;durP2;ratioP2;P2;SDS_P1;SDS_P2;PMS_P1;PMS_P2;Temp;Humidity;BMP_temperature;BMP_pressure;BME280_temperature;BME280_humidity;BME280_pressure;Samples;Min_cycle;Max_cycle;Signal;HPM_P1;HPM_P2
2023/01/17 00:01:32;;;;;;;2.03;1.10;;;;;;;;;;5019166;28;20761;-69
2023/01/17 00:12:10;;;;;;;1.07;0.50;;;;;;;;;;5027366;28;20190;-68
2023/01/17 00:14:36;;;;;;;1.00;0.47;;;;;;;;;;5028153;28;20816;-69
2023/01/17 00:17:01;;;;;;;0.67;0.40;;;;;;;;;;5022334;28;20195;-69
2023/01/17 01:34:01;;;;;;;1.20;0.20;;;;;;;;;;5029791;28;20193;-72
2023/01/17 01:36:26;;;;;;;2.27;0.20;;;;;;;;;;5022599;28;20642;-71
2023/01/17 01:38:53;;;;;;;0.57;0.20;;;;;;;;;;5020742;28;20202;-71
2023/01/17 01:41:19;;;;;;;1.47;0.40;;;;;;;;;;5026108;28;20190;-70
2023/01/17 01:43:48;;;;;;;2.83;0.30;;;;;;;;;;5021670;28;20544;-71
2023/01/17 01:46:18;;;;;;;0.40;0.20;;;;;;;;;;5036903;28;20194;-70
2023/01/17 01:48:56;;;;;;;1.93;0.27;;;;;;;;;;5025042;28;20194;-69
2023/01/17 01:51:28;;;;;;;5.83;0.70;;;;;;;;;;5019379;28;20198;-70
2023/01/17 01:53:59;;;;;;;8.23;0.50;;;;;;;;;;5029679;28;20378;-70
2023/01/17 01:56:26;;;;;;;4.23;0.53;;;;;;;;;;5022488;28;20186;-70
2023/01/17 01:58:52;;;;;;;1.30;0.20;;;;;;;;;;5025165;28;20182;-70
2023/01/17 02:01:17;;;;;;;5.33;0.30;;;;;;;;;;5034381;28;20657;-70
2023/01/17 02:03:44;;;;;;;3.70;0.30;;;;;;;;;;5022704;28;20214;-69
2023/01/17 02:06:25;;;;;;;4.33;0.40;;;;;;;;;;5023666;28;20633;-70
2023/01/17 02:08:51;;;;;;;4.50;0.37;;;;;;;;;;5031491;28;20664;-71
2023/01/17 02:11:17;;;;;;;1.50;0.20;;;;;;;;;;5027336;28;20186;-71
2023/01/17 02:13:42;;;;;;;0.73;0.10;;;;;;;;;;5028921;28;20694;-72
2023/01/17 02:16:22;;;;;;;4.10;0.30;;;;;;;;;;5040904;28;20219;-72
2023/01/17 02:19:24;;;;;;;2.37;0.10;;;;;;;;;;5029215;28;20227;-72
2023/01/17 02:22:16;;;;;;;1.63;0.20;;;;;;;;;;5017383;28;20289;-72
2023/01/17 02:25:12;;;;;;;0.73;0.10;;;;;;;;;;5023116;28;20228;-71
2023/01/17 02:28:03;;;;;;;0.53;0.30;;;;;;;;;;5024903;28;20191;-72
2023/01/17 02:30:37;;;;;;;0.40;0.20;;;;;;;;;;5024839;28;20594;-72
2023/01/17 02:33:14;;;;;;;2.60;0.13;;;;;;;;;;5033768;28;20182;-72
2023/01/17 02:35:55;;;;;;;2.07;0.10;;;;;;;;;;5031078;28;20610;-72
2023/01/17 02:38:38;;;;;;;0.00;0.00;;;;;;;;;;5025206;28;20252;-72
2023/01/17 02:41:08;;;;;;;2.23;0.10;;;;;;;;;;5019090;28;20288;-72
2023/01/17 02:43:35;;;;;;;1.23;0.20;;;;;;;;;;5021358;28;20221;-71
2023/01/17 02:46:01;;;;;;;1.00;0.10;;;;;;;;;;5029009;28;20265;-70
2023/01/17 02:48:31;;;;;;;1.30;0.30;;;;;;;;;;5031550;28;20591;-70
2023/01/17 02:51:11;;;;;;;2.00;0.30;;;;;;;;;;5020205;28;20186;-71
2023/01/17 02:53:50;;;;;;;1.73;0.20;;;;;;;;;;5028573;28;20182;-71
2023/01/17 02:56:28;;;;;;;2.43;0.20;;;;;;;;;;5027931;28;20192;-71
2023/01/17 02:59:27;;;;;;;1.73;0.20;;;;;;;;;;5034616;28;20580;-71
2023/01/17 03:02:03;;;;;;;1.23;0.23;;;;;;;;;;5025455;28;20205;-70
2023/01/17 03:04:40;;;;;;;3.93;0.20;;;;;;;;;;5026382;28;20233;-70
2023/01/17 03:07:16;;;;;;;0.47;0.10;;;;;;;;;;5029849;28;20290;-70
2023/01/17 03:09:44;;;;;;;2.07;0.20;;;;;;;;;;5014816;28;20189;-70
2023/01/17 03:12:10;;;;;;;0.17;0.07;;;;;;;;;;5029675;28;20281;-70
2023/01/17 03:14:36;;;;;;;1.27;0.23;;;;;;;;;;5033975;28;20181;-70
2023/01/17 03:17:01;;;;;;;0.83;0.20;;;;;;;;;;5023333;28;20195;-70
2023/01/17 03:19:27;;;;;;;2.50;0.30;;;;;;;;;;5016189;28;20186;-70
2023/01/17 03:21:52;;;;;;;1.93;0.10;;;;;;;;;;5030675;28;20194;-69
2023/01/17 03:24:18;;;;;;;1.87;0.10;;;;;;;;;;5022928;28;20226;-70
2023/01/17 03:26:43;;;;;;;0.10;0.00;;;;;;;;;;5024370;28;20347;-69
2023/01/17 03:29:10;;;;;;;1.50;0.20;;;;;;;;;;5022111;28;20190;-69
2023/01/17 03:31:35;;;;;;;0.30;0.20;;;;;;;;;;5021089;28;20197;-69
2023/01/17 03:34:01;;;;;;;0.60;0.43;;;;;;;;;;5023151;28;20650;-69
2023/01/17 03:36:26;;;;;;;2.57;0.20;;;;;;;;;;5026495;28;20263;-70
2023/01/17 03:38:51;;;;;;;2.23;0.30;;;;;;;;;;5014450;28;20220;-70
2023/01/17 03:41:17;;;;;;;1.30;0.30;;;;;;;;;;5021441;28;20191;-70
2023/01/17 03:43:42;;;;;;;1.17;0.30;;;;;;;;;;5024490;28;20248;-69
2023/01/17 03:46:21;;;;;;;1.20;0.37;;;;;;;;;;5015347;28;20191;-71
2023/01/17 03:48:46;;;;;;;3.10;0.40;;;;;;;;;;5023108;28;20683;-71
2023/01/17 03:51:12;;;;;;;1.40;0.40;;;;;;;;;;5034433;28;20181;-70
2023/01/17 03:53:37;;;;;;;0.97;0.20;;;;;;;;;;5029320;28;20695;-71
2023/01/17 03:56:03;;;;;;;2.67;0.30;;;;;;;;;;5017278;28;20203;-70
2023/01/17 03:58:28;;;;;;;1.33;0.30;;;;;;;;;;5030552;28;20199;-71
2023/01/17 04:00:53;;;;;;;0.73;0.23;;;;;;;;;;5022065;28;20206;-71
2023/01/17 04:03:19;;;;;;;1.70;0.30;;;;;;;;;;5025843;28;20294;-70
2023/01/17 04:05:44;;;;;;;0.83;0.40;;;;;;;;;;5025187;28;20251;-70
2023/01/17 04:08:09;;;;;;;0.97;0.30;;;;;;;;;;5030835;28;20245;-70
2023/01/17 04:10:35;;;;;;;1.37;0.50;;;;;;;;;;5034343;28;20426;-70
2023/01/17 04:13:00;;;;;;;3.20;0.40;;;;;;;;;;5027799;28;20186;-70
2023/01/17 04:15:26;;;;;;;3.90;0.50;;;;;;;;;;5033032;28;20190;-70
2023/01/17 04:17:51;;;;;;;2.43;0.47;;;;;;;;;;5027556;28;20186;-69
2023/01/17 04:20:33;;;;;;;1.33;0.43;;;;;;;;;;5022162;28;20178;-69
2023/01/17 04:22:58;;;;;;;3.57;0.60;;;;;;;;;;5027067;28;20230;-69
2023/01/17 04:25:24;;;;;;;3.87;0.53;;;;;;;;;;5035806;28;20203;-70
2023/01/17 04:27:51;;;;;;;6.00;0.90;;;;;;;;;;5028694;28;20684;-70
2023/01/17 04:30:16;;;;;;;3.67;0.60;;;;;;;;;;5028422;28;20197;-71
2023/01/17 04:32:41;;;;;;;5.63;0.90;;;;;;;;;;5033819;28;20194;-71
2023/01/17 04:35:08;;;;;;;3.37;0.80;;;;;;;;;;5025644;28;20726;-71
2023/01/17 04:37:34;;;;;;;5.73;1.00;;;;;;;;;;5014455;28;20190;-71
2023/01/17 04:39:59;;;;;;;7.10;1.40;;;;;;;;;;5033809;28;20212;-70
2023/01/17 04:42:25;;;;;;;4.13;1.10;;;;;;;;;;5030588;28;20673;-69
2023/01/17 04:44:50;;;;;;;5.27;1.90;;;;;;;;;;5026480;28;20318;-69
2023/01/17 04:47:15;;;;;;;4.97;0.80;;;;;;;;;;5032430;28;20197;-70
2023/01/17 04:49:41;;;;;;;4.43;0.80;;;;;;;;;;5029565;28;20228;-70
2023/01/17 04:52:06;;;;;;;3.73;0.80;;;;;;;;;;5018894;28;20645;-71
2023/01/17 04:54:31;;;;;;;4.20;0.70;;;;;;;;;;5038378;28;20190;-71
2023/01/17 04:56:57;;;;;;;4.37;0.70;;;;;;;;;;5028723;28;20222;-71
2023/01/17 04:59:22;;;;;;;6.37;0.77;;;;;;;;;;5028886;28;20203;-71
2023/01/17 05:01:48;;;;;;;3.83;0.57;;;;;;;;;;5046567;28;20568;-71
2023/01/17 05:04:14;;;;;;;3.80;0.40;;;;;;;;;;5029128;28;20206;-71
2023/01/17 05:06:39;;;;;;;3.13;0.77;;;;;;;;;;5039376;28;20199;-70
2023/01/17 05:09:05;;;;;;;9.33;0.97;;;;;;;;;;5028182;28;20182;-71
2023/01/17 05:11:31;;;;;;;3.27;0.53;;;;;;;;;;5026857;28;20197;-70
2023/01/17 05:13:57;;;;;;;7.47;1.80;;;;;;;;;;5024335;28;20190;-71
2023/01/17 05:16:22;;;;;;;6.87;0.90;;;;;;;;;;5022157;28;20198;-70
2023/01/17 05:18:51;;;;;;;8.83;0.63;;;;;;;;;;5028706;28;20201;-70
2023/01/17 05:21:16;;;;;;;6.30;0.63;;;;;;;;;;5039736;28;20190;-70
2023/01/17 05:23:42;;;;;;;5.40;0.80;;;;;;;;;;5042029;28;20275;-70
2023/01/17 05:26:07;;;;;;;3.53;0.47;;;;;;;;;;5028734;28;20286;-70
2023/01/17 05:28:33;;;;;;;7.67;0.70;;;;;;;;;;5024326;28;20459;-71
2023/01/17 05:30:58;;;;;;;7.13;0.63;;;;;;;;;;5016630;28;20212;-71
2023/01/17 05:33:24;;;;;;;8.27;0.87;;;;;;;;;;5035714;28;20486;-71
2023/01/17 05:35:49;;;;;;;4.77;0.67;;;;;;;;;;5026104;28;20190;-70
2023/01/17 05:38:14;;;;;;;12.27;0.60;;;;;;;;;;5041083;28;20186;-71
2023/01/17 05:40:40;;;;;;;2.90;0.50;;;;;;;;;;5029060;28;20630;-71
2023/01/17 05:43:05;;;;;;;3.90;0.60;;;;;;;;;;5028108;28;20214;-70
2023/01/17 05:45:32;;;;;;;4.63;0.50;;;;;;;;;;5027040;28;20256;-71
2023/01/17 05:47:58;;;;;;;11.00;1.20;;;;;;;;;;5025449;28;20195;-71
2023/01/17 05:50:32;;;;;;;4.93;0.40;;;;;;;;;;5026118;28;20666;-71
2023/01/17 05:53:07;;;;;;;6.53;0.60;;;;;;;;;;5030865;28;20186;-71
2023/01/17 05:55:33;;;;;;;6.90;0.50;;;;;;;;;;5039207;28;20254;-71
2023/01/17 05:57:59;;;;;;;9.70;0.93;;;;;;;;;;5037142;28;20672;-71
2023/01/17 06:00:25;;;;;;;5.53;0.80;;;;;;;;;;5028515;28;20747;-71
2023/01/17 06:02:55;;;;;;;6.33;0.63;;;;;;;;;;5028034;28;20198;-71
2023/01/17 06:05:22;;;;;;;4.80;0.77;;;;;;;;;;5025691;28;20217;-71
2023/01/17 06:07:48;;;;;;;4.73;1.00;;;;;;;;;;5024593;28;20194;-71
2023/01/17 06:10:15;;;;;;;6.37;1.60;;;;;;;;;;5034475;28;20225;-70
2023/01/17 06:12:41;;;;;;;4.23;0.60;;;;;;;;;;5041210;28;20265;-71
2023/01/17 06:15:07;;;;;;;1.90;0.57;;;;;;;;;;5032860;28;20184;-71
2023/01/17 06:17:34;;;;;;;3.73;0.50;;;;;;;;;;5039152;28;20629;-70
2023/01/17 06:19:59;;;;;;;3.03;0.37;;;;;;;;;;5033519;28;20604;-70
2023/01/17 06:22:25;;;;;;;5.33;0.70;;;;;;;;;;5033890;28;20175;-70
2023/01/17 06:24:50;;;;;;;3.23;0.90;;;;;;;;;;5026791;28;20244;-69
2023/01/17 06:27:15;;;;;;;3.27;0.67;;;;;;;;;;5035933;28;20247;-69
2023/01/17 06:29:41;;;;;;;2.17;0.90;;;;;;;;;;5030484;28;20649;-69
2023/01/17 06:32:06;;;;;;;8.23;0.97;;;;;;;;;;5025408;28;20202;-70
2023/01/17 06:34:32;;;;;;;5.40;0.97;;;;;;;;;;5027626;28;20654;-70
2023/01/17 06:36:57;;;;;;;7.80;0.90;;;;;;;;;;5026047;28;20194;-69
2023/01/17 06:39:23;;;;;;;10.37;1.27;;;;;;;;;;5020107;28;20252;-69
2023/01/17 06:41:48;;;;;;;7.40;1.50;;;;;;;;;;5029863;28;20204;-70
2023/01/17 06:44:13;;;;;;;7.93;1.60;;;;;;;;;;5028845;28;20225;-70
2023/01/17 06:46:39;;;;;;;9.33;2.30;;;;;;;;;;5032950;28;20282;-69
2023/01/17 06:49:05;;;;;;;7.10;2.07;;;;;;;;;;5044819;28;20649;-69
2023/01/17 06:51:30;;;;;;;9.13;2.53;;;;;;;;;;5022523;28;20187;-69
2023/01/17 06:53:56;;;;;;;7.73;3.03;;;;;;;;;;5018568;28;20246;-69
2023/01/17 06:56:21;;;;;;;11.43;2.50;;;;;;;;;;5024576;28;20254;-69
2023/01/17 06:58:50;;;;;;;7.60;2.80;;;;;;;;;;5021988;28;20724;-69
2023/01/17 07:01:16;;;;;;;7.53;2.30;;;;;;;;;;5016427;28;20206;-69
2023/01/17 07:03:42;;;;;;;6.80;2.70;;;;;;;;;;5023106;28;20206;-69
2023/01/17 07:06:10;;;;;;;9.87;2.50;;;;;;;;;;5031936;28;20189;-69
2023/01/17 07:08:36;;;;;;;10.47;2.73;;;;;;;;;;5021312;28;20221;-69
2023/01/17 07:11:04;;;;;;;11.23;3.30;;;;;;;;;;5020639;28;20211;-69
2023/01/17 07:13:32;;;;;;;8.17;2.90;;;;;;;;;;5032014;28;20191;-69
2023/01/17 07:15:59;;;;;;;12.03;3.47;;;;;;;;;;5035938;28;20195;-69
2023/01/17 07:18:25;;;;;;;9.07;3.23;;;;;;;;;;5023228;28;20278;-69
2023/01/17 07:20:51;;;;;;;9.60;4.37;;;;;;;;;;5020817;28;20221;-67
2023/01/17 07:23:17;;;;;;;14.23;5.07;;;;;;;;;;5033882;28;20756;-68
2023/01/17 07:25:42;;;;;;;13.13;4.40;;;;;;;;;;5021684;28;20190;-68
2023/01/17 07:28:08;;;;;;;13.27;5.13;;;;;;;;;;5044848;28;20197;-69
2023/01/17 07:30:34;;;;;;;12.80;5.90;;;;;;;;;;5040689;28;20193;-68
2023/01/17 07:33:00;;;;;;;11.70;5.97;;;;;;;;;;5028755;28;20193;-68
2023/01/17 07:35:25;;;;;;;17.10;6.70;;;;;;;;;;5033822;28;20205;-68
2023/01/17 07:37:51;;;;;;;18.00;7.00;;;;;;;;;;5041056;28;21452;-69
2023/01/17 07:40:18;;;;;;;21.17;7.97;;;;;;;;;;5039612;28;20637;-69
2023/01/17 07:42:45;;;;;;;18.90;7.87;;;;;;;;;;5038091;28;20205;-68
2023/01/17 07:45:11;;;;;;;15.53;7.87;;;;;;;;;;5042277;28;20183;-68
2023/01/17 07:47:37;;;;;;;19.00;7.80;;;;;;;;;;5042058;28;20613;-68
2023/01/17 07:50:04;;;;;;;15.67;7.00;;;;;;;;;;5037156;28;20188;-68
2023/01/17 07:52:29;;;;;;;18.07;7.80;;;;;;;;;;5039041;28;20512;-68
2023/01/17 07:54:55;;;;;;;19.20;7.93;;;;;;;;;;5036917;28;20178;-69
2023/01/17 07:57:20;;;;;;;20.57;8.70;;;;;;;;;;5044412;28;20680;-68
2023/01/17 07:59:46;;;;;;;18.13;8.87;;;;;;;;;;5043215;28;20281;-68
2023/01/17 08:02:17;;;;;;;17.73;8.77;;;;;;;;;;5034551;28;20197;-69
2023/01/17 08:04:42;;;;;;;21.67;9.70;;;;;;;;;;5035023;28;20220;-68
2023/01/17 08:07:08;;;;;;;19.33;9.57;;;;;;;;;;5041148;28;20182;-67
2023/01/17 08:09:33;;;;;;;20.87;9.93;;;;;;;;;;5042397;28;20587;-68
2023/01/17 08:11:58;;;;;;;17.73;9.23;;;;;;;;;;5033966;28;20228;-68
2023/01/17 08:14:24;;;;;;;22.03;9.80;;;;;;;;;;5029513;28;20201;-68
2023/01/17 08:16:49;;;;;;;21.60;9.87;;;;;;;;;;5019374;28;20189;-68
2023/01/17 08:19:15;;;;;;;20.60;10.53;;;;;;;;;;5034640;28;20640;-68
2023/01/17 08:21:41;;;;;;;21.00;10.33;;;;;;;;;;5038970;28;20189;-68
2023/01/17 08:24:13;;;;;;;19.87;9.47;;;;;;;;;;5024217;28;20723;-67
2023/01/17 08:26:39;;;;;;;21.47;10.53;;;;;;;;;;5040715;28;20640;-68
2023/01/17 08:29:05;;;;;;;21.87;10.47;;;;;;;;;;5038507;28;20308;-67
2023/01/17 08:31:33;;;;;;;17.80;9.73;;;;;;;;;;5026638;28;20675;-68
2023/01/17 08:33:58;;;;;;;18.93;9.67;;;;;;;;;;5041590;28;20666;-67
2023/01/17 08:36:24;;;;;;;19.77;9.10;;;;;;;;;;5041453;28;20193;-68
2023/01/17 08:38:51;;;;;;;18.80;8.67;;;;;;;;;;5038693;28;20249;-68
2023/01/17 08:41:18;;;;;;;24.40;9.93;;;;;;;;;;5037340;28;20186;-68
2023/01/17 08:43:46;;;;;;;19.13;9.83;;;;;;;;;;5029920;28;20210;-68
2023/01/17 08:46:11;;;;;;;21.73;9.50;;;;;;;;;;5030476;28;20193;-68
2023/01/17 08:48:36;;;;;;;20.97;9.73;;;;;;;;;;5038532;28;20205;-68
2023/01/17 08:51:02;;;;;;;23.47;9.53;;;;;;;;;;5036726;28;20201;-68
2023/01/17 08:53:28;;;;;;;21.17;9.53;;;;;;;;;;5039653;28;20179;-68
2023/01/17 08:55:58;;;;;;;17.63;9.00;;;;;;;;;;5034490;28;20379;-68
2023/01/17 08:58:25;;;;;;;17.93;9.00;;;;;;;;;;5036364;28;20198;-68
2023/01/17 09:00:50;;;;;;;19.20;9.00;;;;;;;;;;5043269;28;20494;-68
2023/01/17 09:03:15;;;;;;;20.73;8.83;;;;;;;;;;5039593;28;20194;-68
2023/01/17 09:05:41;;;;;;;14.63;8.30;;;;;;;;;;5041284;28;20293;-68
2023/01/17 09:08:06;;;;;;;18.03;8.37;;;;;;;;;;5039350;28;20197;-68
2023/01/17 09:10:32;;;;;;;19.03;7.83;;;;;;;;;;5039463;28;20198;-68
2023/01/17 09:12:57;;;;;;;15.47;7.40;;;;;;;;;;5033793;28;20670;-68
2023/01/17 09:15:23;;;;;;;13.70;7.83;;;;;;;;;;5036159;28;20189;-68
2023/01/17 09:17:48;;;;;;;21.63;7.37;;;;;;;;;;5042934;28;20712;-69
2023/01/17 09:20:14;;;;;;;15.50;7.53;;;;;;;;;;5044976;28;20185;-69
2023/01/17 09:22:39;;;;;;;15.87;7.17;;;;;;;;;;5036153;28;20193;-68
2023/01/17 09:25:06;;;;;;;15.23;7.10;;;;;;;;;;5040116;28;20201;-69
2023/01/17 09:27:31;;;;;;;17.20;6.93;;;;;;;;;;5039336;28;20186;-68
2023/01/17 09:29:57;;;;;;;16.00;6.43;;;;;;;;;;5047453;28;20216;-68
2023/01/17 09:32:22;;;;;;;16.23;6.33;;;;;;;;;;5043327;28;20254;-68
2023/01/17 09:34:47;;;;;;;14.83;6.70;;;;;;;;;;5048088;28;20217;-68
2023/01/17 09:37:13;;;;;;;12.03;6.33;;;;;;;;;;5043275;28;20181;-68
2023/01/17 09:39:38;;;;;;;15.33;6.73;;;;;;;;;;5037890;28;20193;-68
2023/01/17 09:42:19;;;;;;;17.03;6.10;;;;;;;;;;5032902;28;20190;-68
2023/01/17 09:44:52;;;;;;;11.73;6.17;;;;;;;;;;5034087;28;20895;-69
2023/01/17 09:47:42;;;;;;;15.83;6.03;;;;;;;;;;5030434;28;20298;-68
2023/01/17 09:50:29;;;;;;;15.90;5.97;;;;;;;;;;5039952;28;20327;-68
2023/01/17 09:53:00;;;;;;;13.40;6.23;;;;;;;;;;5044546;28;20186;-68
2023/01/17 09:55:39;;;;;;;9.97;5.13;;;;;;;;;;5039844;28;20170;-68
2023/01/17 09:58:18;;;;;;;14.30;5.57;;;;;;;;;;5040625;28;20616;-68
2023/01/17 10:00:57;;;;;;;13.17;5.80;;;;;;;;;;5029364;28;20201;-68
2023/01/17 10:03:27;;;;;;;18.37;6.10;;;;;;;;;;5040930;28;20236;-68
2023/01/17 10:06:17;;;;;;;18.40;6.30;;;;;;;;;;5043873;28;20274;-68
2023/01/17 10:09:24;;;;;;;13.37;5.47;;;;;;;;;;5040406;28;20191;-68
2023/01/17 10:12:13;;;;;;;11.67;5.20;;;;;;;;;;5016585;28;20738;-69
2023/01/17 10:15:09;;;;;;;13.73;5.67;;;;;;;;;;5029958;28;20190;-68
2023/01/17 10:17:59;;;;;;;13.17;5.87;;;;;;;;;;5023640;28;20408;-68
2023/01/17 10:20:38;;;;;;;16.70;5.93;;;;;;;;;;5049043;28;20193;-69
2023/01/17 10:23:26;;;;;;;18.07;6.13;;;;;;;;;;5024954;28;20287;-68
2023/01/17 10:25:59;;;;;;;19.53;6.03;;;;;;;;;;5041186;28;20301;-68
2023/01/17 10:28:45;;;;;;;23.83;6.23;;;;;;;;;;5022537;28;20252;-69
2023/01/17 10:31:21;;;;;;;17.60;6.13;;;;;;;;;;5027159;28;20195;-69
2023/01/17 10:33:51;;;;;;;13.10;5.30;;;;;;;;;;5025278;28;20547;-70
2023/01/17 10:36:28;;;;;;;17.07;5.87;;;;;;;;;;5027378;28;20745;-68
2023/01/17 10:38:59;;;;;;;14.80;5.43;;;;;;;;;;5036815;28;20185;-69
2023/01/17 10:41:39;;;;;;;14.73;4.67;;;;;;;;;;5027763;28;20252;-70
2023/01/17 10:44:17;;;;;;;11.13;4.90;;;;;;;;;;5041633;28;20212;-69
2023/01/17 10:47:03;;;;;;;11.87;4.67;;;;;;;;;;5012914;28;20198;-68
2023/01/17 10:49:29;;;;;;;10.57;4.53;;;;;;;;;;5029350;28;20201;-69
2023/01/17 10:52:13;;;;;;;12.77;5.87;;;;;;;;;;5038237;28;20202;-68
2023/01/17 10:55:18;;;;;;;12.87;5.07;;;;;;;;;;5044713;28;20182;-68
2023/01/17 10:57:46;;;;;;;13.43;4.43;;;;;;;;;;5010485;28;20525;-69
2023/01/17 11:00:40;;;;;;;13.23;4.60;;;;;;;;;;5031238;28;20205;-69
2023/01/17 11:03:09;;;;;;;13.13;3.67;;;;;;;;;;5023335;28;20210;-69
2023/01/17 11:05:35;;;;;;;18.77;4.57;;;;;;;;;;5035616;28;20268;-69
2023/01/17 11:08:09;;;;;;;13.13;4.40;;;;;;;;;;5045461;28;20193;-69
2023/01/17 11:10:38;;;;;;;12.47;4.47;;;;;;;;;;5029002;28;20255;-69
2023/01/17 11:13:18;;;;;;;8.47;4.13;;;;;;;;;;5033231;28;21553;-69
2023/01/17 11:15:47;;;;;;;9.70;4.47;;;;;;;;;;5030196;28;20186;-69
2023/01/17 11:18:18;;;;;;;12.17;4.70;;;;;;;;;;5028751;28;20654;-69
2023/01/17 11:20:45;;;;;;;9.33;3.93;;;;;;;;;;5026937;28;20669;-69
2023/01/17 11:23:32;;;;;;;12.60;4.03;;;;;;;;;;5020902;28;20654;-68
2023/01/17 11:26:03;;;;;;;10.57;3.93;;;;;;;;;;5030959;28;20181;-69
2023/01/17 11:28:31;;;;;;;13.77;3.90;;;;;;;;;;5031142;28;20190;-69
2023/01/17 11:31:06;;;;;;;9.53;4.10;;;;;;;;;;5028979;28;20514;-71
2023/01/17 11:33:31;;;;;;;13.33;4.20;;;;;;;;;;5032875;28;20227;-71
2023/01/17 11:35:57;;;;;;;9.93;4.17;;;;;;;;;;5029022;28;20214;-69
2023/01/17 11:38:23;;;;;;;29.50;8.90;;;;;;;;;;5009415;28;20186;-69
2023/01/17 11:40:49;;;;;;;12.07;3.50;;;;;;;;;;5033525;28;20178;-68
2023/01/17 11:43:20;;;;;;;16.83;4.37;;;;;;;;;;5023571;28;20674;-69
2023/01/17 11:45:59;;;;;;;8.73;4.23;;;;;;;;;;5028098;28;20209;-68
2023/01/17 11:48:24;;;;;;;7.37;4.00;;;;;;;;;;5023558;28;20267;-69
2023/01/17 11:50:58;;;;;;;9.63;4.13;;;;;;;;;;5032107;28;20181;-69
2023/01/17 11:53:27;;;;;;;8.83;4.17;;;;;;;;;;5031659;28;20185;-69
2023/01/17 11:55:55;;;;;;;12.33;3.70;;;;;;;;;;5037606;28;20662;-69
2023/01/17 11:58:22;;;;;;;8.33;3.40;;;;;;;;;;5028289;28;20223;-69
2023/01/17 12:00:58;;;;;;;7.67;3.93;;;;;;;;;;5029470;28;20652;-69
2023/01/17 12:03:47;;;;;;;9.57;3.50;;;;;;;;;;5029116;28;20292;-69
2023/01/17 12:06:28;;;;;;;10.23;3.20;;;;;;;;;;5036627;28;20189;-69
2023/01/17 12:09:04;;;;;;;5.93;2.90;;;;;;;;;;5045980;28;20192;-69
2023/01/17 12:14:49;;;;;;;7.73;3.27;;;;;;;;;;5019625;28;20556;-69
2023/01/17 12:17:33;;;;;;;7.23;3.20;;;;;;;;;;5026968;28;20729;-69
2023/01/17 12:20:04;;;;;;;8.57;3.60;;;;;;;;;;5041359;28;20495;-69
2023/01/17 12:22:43;;;;;;;7.73;3.03;;;;;;;;;;5023749;28;20194;-69
2023/01/17 12:25:27;;;;;;;9.20;3.40;;;;;;;;;;5034921;28;20221;-69
2023/01/17 12:28:18;;;;;;;9.57;3.50;;;;;;;;;;5024207;28;20201;-68
2023/01/17 12:31:12;;;;;;;6.40;3.23;;;;;;;;;;5034405;28;20198;-70
2023/01/17 12:33:44;;;;;;;11.30;3.10;;;;;;;;;;5025892;28;20650;-68
2023/01/17 12:36:19;;;;;;;10.50;3.37;;;;;;;;;;5028501;28;20186;-68
2023/01/17 12:38:47;;;;;;;10.60;3.10;;;;;;;;;;5015223;28;20205;-70
2023/01/17 12:41:27;;;;;;;9.00;2.70;;;;;;;;;;5017404;28;20184;-68
2023/01/17 12:43:57;;;;;;;9.70;3.20;;;;;;;;;;5022590;28;20209;-68
2023/01/17 12:47:04;;;;;;;9.80;3.70;;;;;;;;;;5022919;28;20256;-70
2023/01/17 12:50:24;;;;;;;5.20;2.93;;;;;;;;;;5005428;28;20202;-70
2023/01/17 12:53:14;;;;;;;6.67;3.20;;;;;;;;;;5005206;28;20448;-69
2023/01/17 12:56:02;;;;;;;4.90;3.03;;;;;;;;;;5024070;28;20233;-70
2023/01/17 12:58:35;;;;;;;10.30;3.80;;;;;;;;;;5030076;28;20201;-69
2023/01/17 13:01:22;;;;;;;6.40;3.20;;;;;;;;;;5029223;28;20320;-70
2023/01/17 13:04:17;;;;;;;6.20;2.90;;;;;;;;;;5019656;28;20214;-70
2023/01/17 13:06:58;;;;;;;5.97;3.23;;;;;;;;;;5041659;28;20197;-70
2023/01/17 13:09:23;;;;;;;5.20;3.33;;;;;;;;;;5041095;28;20201;-70
2023/01/17 13:11:59;;;;;;;6.90;3.30;;;;;;;;;;5041002;28;20194;-70
2023/01/17 13:14:24;;;;;;;5.53;2.67;;;;;;;;;;5027748;28;20186;-70
2023/01/17 13:17:16;;;;;;;6.53;3.07;;;;;;;;;;5039275;28;20197;-70
2023/01/17 13:19:48;;;;;;;6.40;2.80;;;;;;;;;;5026347;28;20638;-69
2023/01/17 13:22:16;;;;;;;6.27;2.53;;;;;;;;;;5032322;28;20185;-70
2023/01/17 13:25:12;;;;;;;6.30;2.83;;;;;;;;;;5030981;28;20259;-70
2023/01/17 13:27:45;;;;;;;5.93;2.60;;;;;;;;;;5027159;28;20269;-70
2023/01/17 13:30:32;;;;;;;7.50;2.43;;;;;;;;;;5019933;28;20198;-69
2023/01/17 13:33:20;;;;;;;5.93;2.57;;;;;;;;;;5019826;28;20561;-69
2023/01/17 13:36:13;;;;;;;8.13;2.77;;;;;;;;;;5030918;28;20257;-70
2023/01/17 13:38:59;;;;;;;5.87;2.07;;;;;;;;;;5030904;28;20264;-69
2023/01/17 13:41:55;;;;;;;7.60;2.43;;;;;;;;;;5027826;28;20202;-69
2023/01/17 13:44:26;;;;;;;4.27;1.63;;;;;;;;;;5026548;28;20249;-69
2023/01/17 13:47:09;;;;;;;6.90;1.90;;;;;;;;;;5031009;28;20197;-69
2023/01/17 13:49:49;;;;;;;6.60;1.70;;;;;;;;;;5024019;28;20209;-70
2023/01/17 13:52:17;;;;;;;10.20;2.00;;;;;;;;;;5031065;28;20229;-70
2023/01/17 13:54:55;;;;;;;5.20;2.20;;;;;;;;;;5038485;28;20186;-69
2023/01/17 13:57:31;;;;;;;5.73;1.83;;;;;;;;;;5029375;28;20200;-69
2023/01/17 14:00:14;;;;;;;5.77;2.13;;;;;;;;;;5028396;28;20218;-69
2023/01/17 14:02:41;;;;;;;4.23;1.57;;;;;;;;;;5022589;28;20228;-69
2023/01/17 14:05:48;;;;;;;7.03;2.20;;;;;;;;;;5035143;28;20214;-70
2023/01/17 14:08:16;;;;;;;6.17;2.00;;;;;;;;;;5023173;28;20228;-70
2023/01/17 14:10:45;;;;;;;3.40;1.70;;;;;;;;;;5032805;28;20198;-69
2023/01/17 14:13:30;;;;;;;2.07;1.33;;;;;;;;;;5029784;28;20194;-70
2023/01/17 14:15:55;;;;;;;8.00;1.60;;;;;;;;;;5025002;28;20558;-69
2023/01/17 14:18:32;;;;;;;4.77;1.30;;;;;;;;;;5030112;28;20194;-70
2023/01/17 14:21:23;;;;;;;1.83;1.00;;;;;;;;;;5028231;28;20198;-69
2023/01/17 14:23:52;;;;;;;1.97;1.03;;;;;;;;;;5030997;28;20230;-69
2023/01/17 14:26:22;;;;;;;2.50;0.77;;;;;;;;;;5037125;28;20189;-69
2023/01/17 14:28:48;;;;;;;3.00;0.70;;;;;;;;;;5028979;28;20217;-69
2023/01/17 14:31:15;;;;;;;3.57;0.83;;;;;;;;;;5043796;28;20661;-69
2023/01/17 14:33:41;;;;;;;2.53;1.00;;;;;;;;;;5040751;28;20265;-69
2023/01/17 14:36:18;;;;;;;4.53;0.80;;;;;;;;;;5043709;28;20265;-69
2023/01/17 14:38:45;;;;;;;3.80;0.83;;;;;;;;;;5037060;28;20189;-69
2023/01/17 14:41:17;;;;;;;4.20;0.63;;;;;;;;;;5034366;28;20193;-69
2023/01/17 14:43:44;;;;;;;4.07;0.90;;;;;;;;;;5034106;28;20213;-69
2023/01/17 14:46:20;;;;;;;2.10;0.60;;;;;;;;;;5035126;28;20197;-69
2023/01/17 14:48:46;;;;;;;3.30;0.70;;;;;;;;;;5032217;28;20281;-69
2023/01/17 14:51:21;;;;;;;2.60;0.80;;;;;;;;;;5041434;28;20656;-69
2023/01/17 14:53:53;;;;;;;9.50;1.50;;;;;;;;;;5042408;28;20216;-69
2023/01/17 14:56:18;;;;;;;4.07;0.80;;;;;;;;;;5048840;28;20193;-69
2023/01/17 14:58:47;;;;;;;3.13;1.07;;;;;;;;;;5033737;28;20428;-69
2023/01/17 15:01:18;;;;;;;3.93;1.10;;;;;;;;;;5034713;28;20635;-69
2023/01/17 15:03:53;;;;;;;5.37;1.80;;;;;;;;;;5031405;28;20678;-69
2023/01/17 15:06:35;;;;;;;3.97;1.63;;;;;;;;;;5033328;28;20247;-69
2023/01/17 15:09:07;;;;;;;4.30;1.50;;;;;;;;;;5022499;28;20197;-70
2023/01/17 15:11:35;;;;;;;5.77;1.50;;;;;;;;;;5023102;28;20281;-69
2023/01/17 15:14:04;;;;;;;4.10;1.73;;;;;;;;;;5024547;28;20218;-69
2023/01/17 15:16:36;;;;;;;5.80;1.70;;;;;;;;;;5029724;28;20272;-69
2023/01/17 15:19:09;;;;;;;7.00;1.90;;;;;;;;;;5034345;28;20660;-69
2023/01/17 15:21:39;;;;;;;2.87;1.40;;;;;;;;;;5041518;28;20301;-70
2023/01/17 15:24:33;;;;;;;3.77;1.30;;;;;;;;;;5031612;28;20233;-69
2023/01/17 15:27:00;;;;;;;5.37;1.27;;;;;;;;;;5029019;28;20201;-69
2023/01/17 15:29:29;;;;;;;4.53;1.70;;;;;;;;;;5032234;28;20297;-69
2023/01/17 15:32:00;;;;;;;5.20;1.93;;;;;;;;;;5044220;28;20205;-69
2023/01/17 15:34:35;;;;;;;5.00;1.90;;;;;;;;;;5017407;28;20194;-69
2023/01/17 15:37:03;;;;;;;7.67;2.13;;;;;;;;;;5037474;28;20663;-70
2023/01/17 15:39:32;;;;;;;7.40;2.37;;;;;;;;;;5026171;28;20239;-67
2023/01/17 15:42:00;;;;;;;6.33;2.10;;;;;;;;;;5028945;28;20193;-68
2023/01/17 15:44:33;;;;;;;4.57;1.73;;;;;;;;;;5035622;28;20218;-70
2023/01/17 15:47:00;;;;;;;3.37;1.33;;;;;;;;;;5032906;28;20193;-69
2023/01/17 15:49:30;;;;;;;3.77;1.53;;;;;;;;;;5039270;28;20186;-69
2023/01/17 15:52:03;;;;;;;4.17;1.30;;;;;;;;;;5040732;28;20647;-68
2023/01/17 15:55:09;;;;;;;3.73;1.70;;;;;;;;;;5025947;28;20200;-68
2023/01/17 15:57:35;;;;;;;13.10;2.63;;;;;;;;;;5025483;28;20209;-68
2023/01/17 16:00:11;;;;;;;5.33;2.53;;;;;;;;;;5027667;28;20206;-69
2023/01/17 16:02:40;;;;;;;6.13;1.73;;;;;;;;;;5017771;28;20193;-69
2023/01/17 16:05:21;;;;;;;3.90;1.70;;;;;;;;;;5025526;28;20279;-68
2023/01/17 16:07:53;;;;;;;6.00;1.73;;;;;;;;;;5040972;28;20194;-69
2023/01/17 16:10:21;;;;;;;5.40;1.43;;;;;;;;;;5028208;28;20198;-68
2023/01/17 16:12:48;;;;;;;5.60;1.70;;;;;;;;;;5017409;28;20311;-68
2023/01/17 16:15:14;;;;;;;5.00;1.77;;;;;;;;;;5014630;28;20183;-68
2023/01/17 16:17:44;;;;;;;6.23;1.70;;;;;;;;;;5038388;28;20588;-68
2023/01/17 16:20:35;;;;;;;3.37;1.50;;;;;;;;;;5027087;28;20530;-69
2023/01/17 16:23:01;;;;;;;4.43;1.60;;;;;;;;;;5029697;28;20226;-68
2023/01/17 16:25:33;;;;;;;5.10;2.10;;;;;;;;;;5031511;28;20251;-68
2023/01/17 16:27:59;;;;;;;5.43;2.13;;;;;;;;;;5025281;28;20198;-68
2023/01/17 16:30:25;;;;;;;6.70;2.20;;;;;;;;;;5031653;28;20589;-68